• Join FlightAware (Why Join?)
  • Login
  • US Flag 
06:09AM EDT


 

Airport Tracker/Info


-or-


 

Live Flight TrackerFlight Track Log ✈ N173AA ✈ 12-May-2013 ✈ KFLL - MKJS / MBJ

Flight Track Log - Related Links

Times and Time Zones

All times are in EDT time to prevent confusion due to time zone crossing. See the N173AA flight status page for this flight to view local times or setup timezone preferences in your user account.

Time Position Orientation Groundspeed Altitude Reporting Facility
EDT Latitude Longitude Course Direction KTS MPH feet Rate Location/Type
05:31PM 26.0783 -80.0719 86° East 202 232 2,400  Level Miami Center
05:32PM 26.0672 -80.0069 101° East 222 255 3,600 900 Climbing Miami Center
05:33PM 26.0600 -79.9558 99° East 252 290 4,100 540 Climbing Miami Center
05:34PM 26.0408 -79.8744 105° East 273 314 4,600 780 Climbing Miami Center
05:35PM 26.0281 -79.7908 100° East 279 321 5,700 1,200 Climbing Miami Center
05:36PM 26.0150 -79.7075 100° East 279 321 7,000 1,200 Climbing Miami Center
05:37PM 26.0039 -79.6261 99° East 279 321 8,200 1,200 Climbing Miami Center
05:38PM 25.9614 -79.5628 127° Southeast 269 310 9,500 1,140 Climbing Miami Center
05:39PM 25.8819 -79.5633 180° South 217 250 10,500 1,080 Climbing Miami Center
05:40PM 25.8064 -79.5778 190° South 240 276 11,700 1,380 Climbing Miami Center
05:41PM 25.7311 -79.5900 188° South 260 299 13,300 10,620 Climbing Miami Center
05:42PM 25.6619 -79.6000 187° South 266 306 33,000 1,620 Climbing Miami Center
05:43PM 25.5947 -79.6144 191° South 255 293 16,600 -7,320 Descending Miami Center
05:44PM 25.5439 -79.6478 211° Southwest 233 268 18,400 1,620 Climbing Miami Center
05:45PM 25.4850 -79.6694 198° South 222 255 19,900 1,140 Climbing Miami Center
05:46PM 25.4161 -79.6725 182° South 229 264 20,700 840 Climbing Miami Center
05:47PM 25.3386 -79.6753 182° South 260 299 21,600 840 Climbing Miami Center
05:48PM 25.2550 -79.6781 182° South 281 323 22,400 840 Climbing Miami Center
05:49PM 25.1736 -79.6808 182° South 299 344 23,300 840 Climbing Miami Center
05:50PM 25.0900 -79.6789 179° South 299 344 24,100 1,020 Climbing Miami Center
05:51PM 25.0086 -79.6769 179° South 299 344 25,400 1,260 Climbing Miami Center
05:52PM 24.9378 -79.6617 169° South 283 326 26,700 1,020 Climbing Miami Center
05:53PM 24.8653 -79.6369 163° South 277 319 27,500 780 Climbing Miami Center
05:54PM 24.7967 -79.6103 161° South 272 313 28,300 660 Climbing Miami Center
05:55PM 24.7219 -79.5881 165° South 272 313 28,900 540 Climbing Miami Center
05:56PM 24.6450 -79.5681 167° South 277 319 29,400 540 Climbing Miami Center
05:57PM 24.5658 -79.5458 166° South 287 330 30,000 600 Climbing Miami Center
05:58PM 24.4850 -79.5236 166° South 292 336 30,700 480 Climbing Miami Center
05:59PM 24.4017 -79.4989 165° South 304 350 31,000 120 Climbing Miami Center
06:00PM 24.3122 -79.4742 166° South 318 366 31,000  Level Miami Center
06:01PM 24.2186 -79.4494 166° South 332 382 31,000  Level Miami Center
06:02PM 24.1231 -79.4225 166° South 346 398 31,000  Level Miami Center
06:03PM 24.0275 -79.3911 163° South 360 414 31,000  Level Miami Center
06:04PM 23.9233 -79.3683 169° South 365 420 31,000  Level Miami Center
06:06PM 23.7580 -79.3543 176° South  Level FlightAware Approximate
06:13PM 23.0474 -79.2860 169° South  Level FlightAware Approximate
06:14PM 22.9476 -79.2660 169° South  Level FlightAware Approximate
06:15PM 22.8478 -79.2459 170° South  Level FlightAware Approximate
06:16PM 22.7479 -79.2259 170° South  Level FlightAware Approximate
06:17PM 22.6481 -79.2059 170° South  Level FlightAware Approximate
06:18PM 22.5483 -79.1859 170° South  Level FlightAware Approximate
06:19PM 22.4485 -79.1659 170° South  Level FlightAware Approximate
06:20PM 22.3486 -79.1460 170° South  Level FlightAware Approximate
06:21PM 22.2488 -79.1261 170° South  Level FlightAware Approximate
06:22PM 22.1490 -79.1063 170° South  Level FlightAware Approximate
06:23PM 22.0491 -79.0864 170° South  Level FlightAware Approximate
06:24PM 21.9493 -79.0666 170° South  Level FlightAware Approximate
06:25PM 21.8494 -79.0468 170° South  Level FlightAware Approximate
06:26PM 21.7496 -79.0271 170° South  Level FlightAware Approximate
06:27PM 21.6497 -79.0074 170° South  Level FlightAware Approximate
06:28PM 21.5499 -78.9877 170° South  Level FlightAware Approximate
06:29PM 21.4501 -78.9680 170° South  Level FlightAware Approximate
06:30PM 21.3502 -78.9484 170° South  Level FlightAware Approximate
06:31PM 21.2503 -78.9288 170° South  Level FlightAware Approximate
06:32PM 21.1505 -78.9092 170° South  Level FlightAware Approximate
06:33PM 21.0506 -78.8896 170° South  Level FlightAware Approximate
06:34PM 20.9508 -78.8701 170° South  Level FlightAware Approximate
06:35PM 20.8498 -78.8731 184° South  Level FlightAware Approximate
06:36PM 20.7485 -78.8809 184° South  Level FlightAware Approximate
06:37PM 20.6473 -78.8887 184° South  Level FlightAware Approximate
06:38PM 20.5460 -78.8965 184° South  Level FlightAware Approximate
06:39PM 20.4448 -78.9043 184° South  Level FlightAware Approximate
06:40PM 20.3435 -78.9121 184° South  Level FlightAware Approximate
06:41PM 20.2421 -78.9167 180° South  Level FlightAware Approximate
06:42PM 20.1406 -78.9167 180° South  Level FlightAware Approximate
06:43PM 20.0396 -78.9201 197° South  Level FlightAware Approximate
06:44PM 19.9519 -78.8957 148° Southeast  Level FlightAware Approximate
06:45PM 19.8659 -78.8383 148° Southeast  Level FlightAware Approximate
06:46PM 19.7799 -78.7810 148° Southeast  Level FlightAware Approximate
06:47PM 19.6943 -78.7229 147° Southeast  Level FlightAware Approximate
06:48PM 19.6093 -78.6640 147° Southeast  Level FlightAware Approximate
06:49PM 19.5242 -78.6052 147° Southeast  Level FlightAware Approximate
06:50PM 19.4384 -78.5477 148° Southeast  Level FlightAware Approximate
06:51PM 19.3525 -78.4904 148° Southeast  Level FlightAware Approximate
06:52PM 19.2666 -78.4331 148° Southeast  Level FlightAware Approximate
06:53PM 19.1806 -78.3759 148° Southeast  Level FlightAware Approximate
06:54PM 19.0947 -78.3187 148° Southeast  Level FlightAware Approximate
06:55PM 19.0087 -78.2616 149° Southeast  Level FlightAware Approximate
06:56PM 18.9217 -78.2062 149° Southeast  Level FlightAware Approximate
06:57PM 18.8348 -78.1509 149° Southeast  Level FlightAware Approximate
06:58PM 18.7519 -78.0889 145° Southeast  Level FlightAware Approximate
06:59PM 18.6680 -78.0346 137° Southeast  Level FlightAware Approximate
07:00PM 18.5830 -77.9799 159° South  Level FlightAware Approximate
07:01PM 18.5020 -77.9186 137° Southeast  Level FlightAware Approximate
07:02PM 18.5037 -77.9134 90° East  Level Estimated
07:03PM 18.5037 -77.9134 90° East  Level Estimated
07:04PM 18.5037 -77.9134 90° East  Level Estimated
07:05PM 18.5037 -77.9134 90° East  Level Estimated
07:06PM 18.5037 -77.9134 90° East  Level Estimated
07:07PM 18.5037 -77.9134 90° East  Level Estimated
07:08PM 18.5037 -77.9134 90° East  Level Estimated
07:09PM 18.5037 -77.9134 90° East  Level Estimated
07:10PM 18.5037 -77.9134 90° East  Level Estimated
07:11PM 18.5037 -77.9134 90° East  Level Estimated
07:12PM 18.5037 -77.9134 90° East  Level Estimated
07:13PM 18.5037 -77.9134 90° East  Level Estimated
07:14PM 18.5037 -77.9134 90° East  Level Estimated
07:15PM 18.5037 -77.9134 90° East  Level Estimated
07:16PM 18.5037 -77.9134 90° East  Level Estimated
07:17PM 18.5037 -77.9134 90° East  Level Estimated
07:18PM 18.5037 -77.9134 90° East  Level Estimated
07:19PM 18.5037 -77.9134 90° East  Level Estimated
07:20PM 18.5037 -77.9134 90° East  Level Estimated